Time;durP1;ratioP1;P1;durP2;ratioP2;P2;SDS_P1;SDS_P2;PMS_P1;PMS_P2;Temp;Humidity;BMP_temperature;BMP_pressure;BME280_temperature;BME280_humidity;BME280_pressure;Samples;Min_cycle;Max_cycle;Signal;HPM_P1;HPM_P2
2021/09/29 00:02:08;;;;;;;5.37;4.57;;;13.90;99.90;;;;;;5073479;28;20614;-68
2021/09/29 00:04:35;;;;;;;4.80;4.40;;;13.90;99.90;;;;;;5073732;28;21157;-68
2021/09/29 00:07:01;;;;;;;9.70;4.77;;;13.80;99.90;;;;;;5073830;28;20614;-68
2021/09/29 00:09:27;;;;;;;6.07;4.60;;;13.70;99.90;;;;;;5073848;28;20614;-68
2021/09/29 00:11:54;;;;;;;9.70;4.80;;;13.70;99.90;;;;;;5073782;28;20613;-68
2021/09/29 00:14:20;;;;;;;5.63;5.13;;;13.50;99.90;;;;;;5074229;28;20593;-68
2021/09/29 00:16:47;;;;;;;5.13;4.27;;;13.40;99.90;;;;;;5073412;28;20646;-68
2021/09/29 00:19:13;;;;;;;6.13;4.70;;;13.20;99.90;;;;;;5073316;28;21184;-68
2021/09/29 00:21:42;;;;;;;6.00;4.70;;;13.00;99.90;;;;;;5073495;28;20963;-68
2021/09/29 00:24:09;;;;;;;12.60;5.33;;;13.00;99.90;;;;;;5074089;28;21165;-68
2021/09/29 00:26:35;;;;;;;4.32;3.92;;;12.90;99.90;;;;;;5080074;28;20597;-68
2021/09/29 00:29:01;;;;;;;5.10;4.60;;;12.80;99.90;;;;;;5080298;28;20215;-68
2021/09/29 00:34:00;;;;;;;5.75;5.07;;;12.60;99.90;;;;;;5079851;28;20601;-68
2021/09/29 00:36:26;;;;;;;5.60;4.70;;;12.60;99.90;;;;;;5080258;28;20206;-68
2021/09/29 00:38:53;;;;;;;10.93;5.40;;;12.60;99.90;;;;;;5079747;28;20215;-68
2021/09/29 00:41:19;;;;;;;6.15;4.88;;;12.70;99.90;;;;;;5080309;28;20196;-68
2021/09/29 00:43:46;;;;;;;10.10;5.35;;;12.70;99.90;;;;;;5079946;28;20196;-73
2021/09/29 00:46:14;;;;;;;7.07;4.50;;;12.70;99.90;;;;;;5079613;28;20196;-68
2021/09/29 00:48:41;;;;;;;10.90;5.97;;;12.80;99.90;;;;;;5079767;28;20269;-68
2021/09/29 00:51:09;;;;;;;5.37;4.30;;;12.90;99.90;;;;;;5079844;28;20214;-68
2021/09/29 00:53:35;;;;;;;7.60;4.67;;;13.00;99.90;;;;;;5079769;28;20601;-68
2021/09/29 00:56:04;;;;;;;7.37;5.40;;;13.00;99.90;;;;;;5079862;28;20590;-68
2021/09/29 00:58:30;;;;;;;8.47;4.80;;;13.00;99.90;;;;;;5079647;28;21009;-68
2021/09/29 01:00:56;;;;;;;9.40;5.27;;;13.00;99.90;;;;;;5079973;28;20659;-68
2021/09/29 01:03:24;;;;;;;4.93;4.00;;;13.10;99.90;;;;;;5080082;28;20620;-68
2021/09/29 01:05:53;;;;;;;8.10;4.23;;;13.10;99.90;;;;;;5079575;28;20620;-68
2021/09/29 01:08:29;;;;;;;4.77;3.83;;;13.00;99.90;;;;;;5079289;28;20961;-68
2021/09/29 01:11:07;;;;;;;10.37;5.07;;;13.10;99.90;;;;;;5080123;28;20616;-68
2021/09/29 01:13:42;;;;;;;6.07;4.40;;;13.10;99.90;;;;;;5079699;28;21228;-68
2021/09/29 01:16:11;;;;;;;13.35;4.30;;;13.10;99.90;;;;;;5080395;28;20582;-68
2021/09/29 01:18:42;;;;;;;4.40;4.00;;;13.20;99.90;;;;;;5077996;28;20612;-68
2021/09/29 01:21:11;;;;;;;7.40;4.60;;;13.20;99.90;;;;;;5080156;28;21150;-68
2021/09/29 01:23:43;;;;;;;4.88;4.18;;;13.20;99.90;;;;;;5079907;28;20589;-68
2021/09/29 01:26:27;;;;;;;5.97;4.60;;;13.20;99.90;;;;;;5079710;28;20670;-68
2021/09/29 01:29:02;;;;;;;5.73;4.10;;;13.20;99.90;;;;;;5079683;28;20218;-68
2021/09/29 01:31:31;;;;;;;7.82;4.88;;;13.20;99.90;;;;;;5079542;28;20990;-68
2021/09/29 01:33:59;;;;;;;5.68;4.78;;;13.10;99.90;;;;;;5079727;28;20203;-68
2021/09/29 01:36:27;;;;;;;5.40;4.68;;;13.00;99.90;;;;;;5077568;28;20208;-68
2021/09/29 01:38:56;;;;;;;7.50;5.23;;;12.90;99.90;;;;;;5076540;28;20222;-68
2021/09/29 01:41:31;;;;;;;6.68;4.47;;;12.90;99.90;;;;;;5075980;28;20571;-68
2021/09/29 01:43:58;;;;;;;6.40;4.45;;;12.80;99.90;;;;;;5076327;28;20635;-68
2021/09/29 01:46:27;;;;;;;6.22;5.20;;;12.70;99.90;;;;;;5075988;28;20577;-68
2021/09/29 01:49:05;;;;;;;5.90;4.82;;;12.70;99.90;;;;;;5076081;28;20226;-68
2021/09/29 01:51:37;;;;;;;10.50;4.90;;;12.70;99.90;;;;;;5076611;28;20204;-68
2021/09/29 01:54:05;;;;;;;8.18;4.40;;;12.70;99.90;;;;;;5075995;28;20177;-68
2021/09/29 01:56:32;;;;;;;6.15;5.40;;;12.70;99.90;;;;;;5075841;28;20652;-68
2021/09/29 01:59:01;;;;;;;11.55;9.70;;;12.70;99.90;;;;;;5075618;28;20277;-68
2021/09/29 02:01:27;;;;;;;27.73;19.80;;;12.70;99.90;;;;;;5076008;28;20196;-68
2021/09/29 02:03:54;;;;;;;8.02;5.38;;;12.70;99.90;;;;;;5075916;28;20204;-68
2021/09/29 02:06:20;;;;;;;6.45;5.22;;;12.80;99.90;;;;;;5075500;28;20539;-68
2021/09/29 02:08:46;;;;;;;6.75;5.97;;;12.70;99.90;;;;;;5075875;28;20208;-68
2021/09/29 02:11:13;;;;;;;6.57;5.90;;;12.70;99.90;;;;;;5075606;28;20188;-68
2021/09/29 02:13:39;;;;;;;7.65;5.32;;;12.70;99.90;;;;;;5075262;28;20196;-68
2021/09/29 02:16:05;;;;;;;8.13;5.80;;;12.70;99.90;;;;;;5075795;28;20707;-68
2021/09/29 02:18:32;;;;;;;7.93;5.45;;;12.60;99.90;;;;;;5075294;28;20642;-68
2021/09/29 02:20:58;;;;;;;8.48;5.05;;;12.70;99.90;;;;;;5075725;28;20535;-68
2021/09/29 02:23:29;;;;;;;6.25;5.55;;;12.60;99.90;;;;;;5075249;28;20589;-68
2021/09/29 02:25:55;;;;;;;8.85;6.03;;;12.60;99.90;;;;;;5075461;28;20208;-68
2021/09/29 02:28:22;;;;;;;8.60;5.20;;;12.60;99.90;;;;;;5075291;28;20192;-68
2021/09/29 02:30:48;;;;;;;8.07;6.03;;;12.60;99.90;;;;;;5075503;28;20208;-68
2021/09/29 02:33:15;;;;;;;9.30;5.95;;;12.60;99.90;;;;;;5074202;28;20203;-68
2021/09/29 02:35:41;;;;;;;5.82;5.25;;;12.50;99.90;;;;;;5075210;28;20211;-68
2021/09/29 02:38:08;;;;;;;9.27;6.20;;;12.40;99.90;;;;;;5075217;28;20532;-68
2021/09/29 02:40:34;;;;;;;10.02;6.43;;;12.30;99.90;;;;;;5075374;28;20200;-68
2021/09/29 02:43:03;;;;;;;8.07;6.65;;;12.20;99.90;;;;;;5075151;28;20195;-68
2021/09/29 02:45:29;;;;;;;10.60;7.40;;;12.20;99.90;;;;;;5074362;28;20222;-68
2021/09/29 02:47:56;;;;;;;9.63;7.10;;;12.20;99.90;;;;;;5074109;28;20227;-68
2021/09/29 02:50:22;;;;;;;8.38;7.43;;;12.20;99.90;;;;;;5075090;28;20679;-68
2021/09/29 02:52:48;;;;;;;13.35;7.93;;;12.10;99.90;;;;;;5074824;28;20188;-68
2021/09/29 02:55:15;;;;;;;14.35;8.38;;;12.20;99.90;;;;;;5075163;28;20613;-68
2021/09/29 02:57:41;;;;;;;10.70;8.48;;;12.20;99.90;;;;;;5074665;28;20199;-68
2021/09/29 03:00:08;;;;;;;12.80;8.77;;;12.20;99.90;;;;;;5074853;28;20223;-68
2021/09/29 03:02:35;;;;;;;15.27;9.50;;;12.20;99.90;;;;;;5071520;28;20201;-68
2021/09/29 03:05:01;;;;;;;10.88;9.23;;;12.20;99.90;;;;;;5061656;28;20187;-68
2021/09/29 03:07:27;;;;;;;19.88;11.18;;;12.20;99.90;;;;;;5062036;28;20275;-68
2021/09/29 03:09:53;;;;;;;12.57;11.13;;;12.20;99.90;;;;;;5074261;28;20249;-68
2021/09/29 03:12:20;;;;;;;16.88;10.05;;;12.20;99.90;;;;;;5074500;28;20566;-68
2021/09/29 03:14:47;;;;;;;14.18;12.77;;;12.20;99.90;;;;;;5074165;28;20207;-68
2021/09/29 03:17:13;;;;;;;12.15;10.88;;;12.10;99.90;;;;;;5074189;28;20236;-68
2021/09/29 03:19:41;;;;;;;13.82;9.63;;;12.10;99.90;;;;;;5074461;28;20216;-68
2021/09/29 03:22:08;;;;;;;13.35;9.38;;;12.10;99.90;;;;;;5074423;28;20202;-68
2021/09/29 03:24:34;;;;;;;14.27;9.57;;;12.00;99.90;;;;;;5075167;28;20203;-68
2021/09/29 03:27:00;;;;;;;10.15;9.07;;;12.00;99.90;;;;;;5074512;28;20200;-68
2021/09/29 03:29:28;;;;;;;11.93;9.30;;;12.00;99.90;;;;;;5074430;28;20208;-68
2021/09/29 03:31:56;;;;;;;12.38;9.35;;;12.00;99.90;;;;;;5074355;28;20203;-68
2021/09/29 03:34:23;;;;;;;14.55;9.45;;;11.90;99.90;;;;;;5074328;28;20207;-68
2021/09/29 03:36:49;;;;;;;12.23;9.82;;;11.90;99.90;;;;;;5074147;28;20196;-68
2021/09/29 03:39:15;;;;;;;13.93;8.68;;;11.90;99.90;;;;;;5073924;28;20216;-68
2021/09/29 03:41:42;;;;;;;9.80;8.88;;;11.80;99.90;;;;;;5074280;28;20199;-68
2021/09/29 03:44:08;;;;;;;10.73;9.63;;;11.80;99.90;;;;;;5074075;28;20216;-68
2021/09/29 03:46:35;;;;;;;12.13;8.95;;;11.80;99.90;;;;;;5073850;28;20199;-68
2021/09/29 03:49:03;;;;;;;14.88;9.57;;;11.70;99.90;;;;;;5073682;28;20234;-68
2021/09/29 03:51:29;;;;;;;12.82;10.18;;;11.70;99.90;;;;;;5073595;28;20298;-68
2021/09/29 03:53:56;;;;;;;14.13;9.05;;;11.70;99.90;;;;;;5074216;28;20213;-68
2021/09/29 03:56:22;;;;;;;12.68;9.15;;;11.70;99.90;;;;;;5073926;28;20608;-68
2021/09/29 03:58:49;;;;;;;14.27;9.00;;;11.70;99.90;;;;;;5073844;28;20223;-68
2021/09/29 04:01:15;;;;;;;9.93;8.60;;;11.70;99.90;;;;;;5073192;28;20199;-68
2021/09/29 04:03:41;;;;;;;18.40;10.77;;;11.70;99.90;;;;;;5073431;28;20200;-68
2021/09/29 04:06:08;;;;;;;9.38;8.27;;;11.80;99.90;;;;;;5072377;28;20212;-68
2021/09/29 04:08:34;;;;;;;11.75;8.95;;;11.80;99.90;;;;;;5073372;28;20203;-68
2021/09/29 04:11:02;;;;;;;11.10;8.43;;;11.70;99.90;;;;;;5073221;28;20223;-68
2021/09/29 04:13:31;;;;;;;10.35;8.68;;;11.70;99.90;;;;;;5073651;28;20192;-68
2021/09/29 04:15:57;;;;;;;15.57;8.27;;;11.70;99.90;;;;;;5073408;28;20639;-68
2021/09/29 04:18:23;;;;;;;16.38;9.55;;;11.70;99.90;;;;;;5073117;28;20236;-68
2021/09/29 04:20:50;;;;;;;9.75;8.77;;;11.70;99.90;;;;;;5072950;28;20200;-68
2021/09/29 04:23:16;;;;;;;10.65;8.50;;;11.70;99.90;;;;;;5073264;28;20181;-68
2021/09/29 04:25:42;;;;;;;12.40;8.82;;;11.70;99.90;;;;;;5073119;28;20196;-68
2021/09/29 04:28:09;;;;;;;11.57;8.48;;;11.80;99.90;;;;;;5073909;28;20192;-68
2021/09/29 04:30:35;;;;;;;13.98;8.75;;;11.80;99.90;;;;;;5073329;28;20211;-68
2021/09/29 04:33:02;;;;;;;11.07;8.25;;;11.80;99.90;;;;;;5073176;28;20697;-68
2021/09/29 04:35:29;;;;;;;15.50;8.90;;;11.90;99.90;;;;;;5072997;28;20629;-68
2021/09/29 04:37:55;;;;;;;9.43;8.55;;;11.90;99.90;;;;;;5073048;28;20207;-68
2021/09/29 04:40:22;;;;;;;16.88;8.77;;;11.90;99.90;;;;;;5071941;28;20664;-68
2021/09/29 04:42:49;;;;;;;9.95;6.95;;;11.90;99.90;;;;;;5072894;28;20192;-68
2021/09/29 04:45:15;;;;;;;9.20;7.05;;;12.00;99.90;;;;;;5073124;28;20291;-68
2021/09/29 04:47:41;;;;;;;8.68;7.80;;;12.00;99.90;;;;;;5073194;28;20676;-68
2021/09/29 04:50:08;;;;;;;10.18;9.18;;;12.00;99.90;;;;;;5073291;28;20200;-68
2021/09/29 04:52:35;;;;;;;11.85;8.45;;;12.00;99.90;;;;;;5072925;28;20183;-68
2021/09/29 04:55:01;;;;;;;11.68;8.50;;;12.10;99.90;;;;;;5073189;28;20632;-68
2021/09/29 04:57:29;;;;;;;12.75;7.50;;;12.10;99.90;;;;;;5072813;28;20208;-68
2021/09/29 04:59:55;;;;;;;11.10;8.18;;;12.10;99.90;;;;;;5072684;28;20235;-68
2021/09/29 05:02:23;;;;;;;11.43;7.43;;;12.10;99.90;;;;;;5073260;28;20215;-68
2021/09/29 05:04:49;;;;;;;7.55;6.88;;;12.10;99.90;;;;;;5072836;28;20199;-68
2021/09/29 05:07:17;;;;;;;9.25;7.95;;;12.10;99.90;;;;;;5072757;28;20644;-68
2021/09/29 05:09:45;;;;;;;11.75;8.20;;;12.10;99.90;;;;;;5072706;28;20648;-68
2021/09/29 05:12:24;;;;;;;12.02;8.52;;;12.10;99.90;;;;;;5074449;28;20655;-68
2021/09/29 05:14:51;;;;;;;11.43;9.07;;;12.10;99.90;;;;;;5076855;28;20192;-67
2021/09/29 05:17:17;;;;;;;9.35;7.40;;;12.00;99.90;;;;;;5076595;28;20710;-68
2021/09/29 05:19:44;;;;;;;15.73;8.70;;;12.00;99.90;;;;;;5076573;28;20219;-68
2021/09/29 05:22:11;;;;;;;9.60;8.38;;;11.90;99.90;;;;;;5076636;28;20287;-68
2021/09/29 05:24:38;;;;;;;9.88;8.98;;;11.90;99.90;;;;;;5076349;28;20196;-68
2021/09/29 05:27:04;;;;;;;16.73;10.35;;;11.80;99.90;;;;;;5076550;28;20196;-68
2021/09/29 05:29:31;;;;;;;11.38;8.80;;;11.80;99.90;;;;;;5076325;28;20210;-68
2021/09/29 05:31:58;;;;;;;13.23;9.50;;;11.80;99.90;;;;;;5076376;28;20216;-68
2021/09/29 05:34:26;;;;;;;10.57;8.48;;;11.80;99.90;;;;;;5076460;28;20207;-68
2021/09/29 05:36:53;;;;;;;10.98;9.32;;;11.80;99.90;;;;;;5074762;28;20207;-68
2021/09/29 05:39:20;;;;;;;10.98;9.43;;;11.80;99.90;;;;;;5074471;28;20288;-69
2021/09/29 05:41:47;;;;;;;11.60;10.35;;;11.70;99.90;;;;;;5075627;28;20211;-68
2021/09/29 05:44:13;;;;;;;10.68;9.68;;;11.70;99.90;;;;;;5076189;28;20203;-69
2021/09/29 05:46:39;;;;;;;12.80;9.65;;;11.70;99.90;;;;;;5076022;28;20238;-69
2021/09/29 05:49:06;;;;;;;13.82;9.80;;;11.70;99.90;;;;;;5075581;28;20212;-68
2021/09/29 05:51:32;;;;;;;10.13;8.88;;;11.70;99.90;;;;;;5076066;28;20547;-68
2021/09/29 05:53:58;;;;;;;13.90;10.70;;;11.70;99.90;;;;;;5075678;28;20620;-69
2021/09/29 05:56:25;;;;;;;15.77;9.52;;;11.70;99.90;;;;;;5075574;28;20200;-69
2021/09/29 05:58:53;;;;;;;10.07;9.05;;;11.70;99.90;;;;;;5075689;28;20215;-69
2021/09/29 06:01:22;;;;;;;9.23;8.38;;;11.80;99.90;;;;;;5075821;28;20208;-69
2021/09/29 06:03:48;;;;;;;9.13;8.20;;;11.80;99.90;;;;;;5076399;28;20207;-69
2021/09/29 06:06:14;;;;;;;14.30;9.30;;;11.80;99.90;;;;;;5075796;28;20203;-69
2021/09/29 06:08:41;;;;;;;10.27;8.15;;;11.90;99.90;;;;;;5075796;28;20196;-69
2021/09/29 06:11:09;;;;;;;12.65;8.80;;;11.90;99.90;;;;;;5075404;28;20333;-69
2021/09/29 06:13:36;;;;;;;12.90;8.27;;;12.00;99.90;;;;;;5075529;28;20203;-69
2021/09/29 06:16:07;;;;;;;9.43;8.43;;;12.00;99.90;;;;;;5075780;28;20215;-69
2021/09/29 06:18:39;;;;;;;11.48;7.85;;;12.10;99.90;;;;;;5075422;28;20277;-69
2021/09/29 06:21:07;;;;;;;14.68;8.38;;;12.00;99.90;;;;;;5076111;28;20226;-69
2021/09/29 06:23:35;;;;;;;8.02;7.25;;;12.10;99.90;;;;;;5075023;28;20283;-69
2021/09/29 06:26:02;;;;;;;9.02;6.60;;;12.30;99.90;;;;;;5075504;28;20556;-69
2021/09/29 06:28:37;;;;;;;9.52;6.88;;;12.30;99.90;;;;;;5075221;28;20196;-69
2021/09/29 06:31:05;;;;;;;11.40;7.03;;;12.40;99.90;;;;;;5075348;28;20176;-69
2021/09/29 06:33:32;;;;;;;12.57;6.28;;;12.50;99.90;;;;;;5074889;28;20211;-69
2021/09/29 06:35:59;;;;;;;11.32;6.07;;;12.50;99.90;;;;;;5074938;28;20215;-68
2021/09/29 06:38:26;;;;;;;6.25;5.65;;;12.50;99.90;;;;;;5074519;28;20578;-69
2021/09/29 06:40:53;;;;;;;11.52;5.32;;;12.50;99.90;;;;;;5073718;28;20220;-69
2021/09/29 06:43:19;;;;;;;23.45;6.40;;;12.50;99.90;;;;;;5074642;28;20200;-69
2021/09/29 06:45:46;;;;;;;10.73;5.47;;;12.40;99.90;;;;;;5075080;28;20196;-69
2021/09/29 06:48:12;;;;;;;8.48;5.00;;;12.40;99.90;;;;;;5073648;28;20226;-69
2021/09/29 06:50:39;;;;;;;7.60;5.50;;;12.50;99.90;;;;;;5074606;28;20290;-69
2021/09/29 06:53:13;;;;;;;5.90;5.30;;;12.60;99.90;;;;;;5074802;28;20212;-69
2021/09/29 06:55:40;;;;;;;8.32;5.15;;;12.70;99.90;;;;;;5074696;28;20558;-69
2021/09/29 06:58:06;;;;;;;8.07;5.53;;;12.80;99.90;;;;;;5074755;28;20204;-69
2021/09/29 07:00:32;;;;;;;9.77;5.32;;;12.90;99.90;;;;;;5074480;28;20797;-69
2021/09/29 07:02:59;;;;;;;5.85;5.07;;;13.00;99.90;;;;;;5074467;28;20196;-69
2021/09/29 07:05:26;;;;;;;9.15;5.32;;;13.00;99.90;;;;;;5074577;28;20555;-69
2021/09/29 07:07:52;;;;;;;9.70;5.40;;;13.20;99.90;;;;;;5074351;28;20219;-69
2021/09/29 07:10:19;;;;;;;10.30;4.70;;;13.20;99.90;;;;;;5074520;28;20552;-69
2021/09/29 07:12:45;;;;;;;5.93;5.43;;;13.20;99.90;;;;;;5074531;28;20643;-69
2021/09/29 07:15:12;;;;;;;10.52;4.50;;;13.40;99.90;;;;;;5072754;28;20207;-69
2021/09/29 07:17:40;;;;;;;7.63;4.88;;;13.50;99.90;;;;;;5073804;28;20236;-68
2021/09/29 07:20:11;;;;;;;8.20;4.47;;;13.60;99.90;;;;;;5073567;28;20292;-69
2021/09/29 07:22:39;;;;;;;11.48;4.53;;;13.60;99.90;;;;;;5074548;28;20208;-69
2021/09/29 07:25:06;;;;;;;4.30;3.90;;;13.80;99.90;;;;;;5073799;28;20200;-69
2021/09/29 07:27:33;;;;;;;4.10;3.73;;;13.80;99.90;;;;;;5074169;28;20610;-67
2021/09/29 07:30:00;;;;;;;6.97;4.53;;;14.00;99.90;;;;;;5073765;28;20634;-67
2021/09/29 07:32:27;;;;;;;11.07;4.20;;;14.10;99.90;;;;;;5073781;28;20667;-68
2021/09/29 07:34:53;;;;;;;5.57;3.80;;;14.30;99.90;;;;;;5072906;28;20630;-68
2021/09/29 07:37:19;;;;;;;4.73;4.27;;;14.30;99.90;;;;;;5073906;28;20614;-68
2021/09/29 07:39:46;;;;;;;9.17;5.00;;;14.40;99.90;;;;;;5073672;28;20649;-68
2021/09/29 07:42:13;;;;;;;4.00;3.70;;;14.50;99.90;;;;;;5073906;28;20622;-69
2021/09/29 07:44:42;;;;;;;7.97;3.80;;;14.60;99.90;;;;;;5073553;28;20610;-68
2021/09/29 07:47:09;;;;;;;8.03;3.67;;;14.80;99.90;;;;;;5073596;28;20622;-68
2021/09/29 07:49:36;;;;;;;10.10;4.37;;;15.00;99.90;;;;;;5073651;28;20598;-68
2021/09/29 07:52:03;;;;;;;6.70;3.70;;;15.30;99.90;;;;;;5073564;28;20628;-68
2021/09/29 07:54:29;;;;;;;14.90;3.97;;;15.50;99.90;;;;;;5073304;28;21198;-69
2021/09/29 07:56:56;;;;;;;3.00;2.70;;;15.50;99.90;;;;;;5073505;28;20590;-69
2021/09/29 07:59:23;;;;;;;9.40;4.03;;;15.40;99.90;;;;;;5073367;28;20602;-68
2021/09/29 08:01:50;;;;;;;11.03;3.93;;;15.50;99.90;;;;;;5073398;28;20606;-68
2021/09/29 08:04:20;;;;;;;5.80;3.00;;;15.50;99.90;;;;;;5073433;28;21210;-68
2021/09/29 08:06:46;;;;;;;4.50;2.70;;;15.60;99.90;;;;;;5073562;28;20629;-68
2021/09/29 08:09:13;;;;;;;3.53;1.80;;;15.90;99.90;;;;;;5073526;28;20586;-69
2021/09/29 08:11:39;;;;;;;4.70;2.77;;;15.90;99.90;;;;;;5073344;28;20709;-68
2021/09/29 08:14:06;;;;;;;2.60;2.50;;;15.70;99.90;;;;;;5073351;28;20595;-68
2021/09/29 08:16:32;;;;;;;7.13;2.60;;;15.60;99.90;;;;;;5073181;28;20927;-68
2021/09/29 08:18:58;;;;;;;3.77;2.13;;;15.60;99.90;;;;;;5073340;28;20563;-68
2021/09/29 08:21:29;;;;;;;5.43;2.43;;;15.50;99.90;;;;;;5073393;28;20654;-68
2021/09/29 08:24:10;;;;;;;4.13;2.37;;;15.50;99.90;;;;;;5073043;28;20626;-69
2021/09/29 08:27:02;;;;;;;8.07;3.33;;;15.50;99.90;;;;;;5073172;28;20622;-68
2021/09/29 08:29:50;;;;;;;15.50;2.90;;;15.60;99.90;;;;;;5073159;28;20625;-68
2021/09/29 08:40:12;;;;;;;3.67;2.40;;;15.70;99.90;;;;;;5072884;28;20618;-69
2021/09/29 08:42:56;;;;;;;7.60;2.13;;;15.70;99.90;;;;;;5072363;28;20618;-69
2021/09/29 08:46:15;;;;;;;10.63;3.10;;;15.50;99.90;;;;;;5073151;28;20622;-69
2021/09/29 08:53:44;;;;;;;3.67;1.83;;;15.70;99.90;;;;;;5068787;28;20610;-69
2021/09/29 09:18:26;;;;;;;4.77;2.30;;;16.20;99.90;;;;;;5076310;28;20634;-68
2021/09/29 09:21:02;;;;;;;5.20;1.93;;;16.40;99.90;;;;;;5076652;28;20999;-68
2021/09/29 09:23:40;;;;;;;5.20;2.20;;;16.60;99.90;;;;;;5076883;28;20999;-69
2021/09/29 09:26:24;;;;;;;7.57;2.10;;;16.50;99.90;;;;;;5076356;28;20617;-69
2021/09/29 09:29:05;;;;;;;4.80;1.80;;;16.40;99.90;;;;;;5076398;28;20566;-70
2021/09/29 09:31:32;;;;;;;6.00;2.23;;;16.50;99.90;;;;;;5076241;28;20621;-69
2021/09/29 09:34:03;;;;;;;4.50;2.17;;;16.40;99.90;;;;;;5076106;28;20656;-69
2021/09/29 09:36:40;;;;;;;6.33;2.03;;;16.50;99.90;;;;;;5076487;28;20559;-68
2021/09/29 09:39:10;;;;;;;4.50;2.40;;;16.20;99.90;;;;;;5076525;28;20604;-68
2021/09/29 09:41:37;;;;;;;6.80;2.20;;;16.20;99.90;;;;;;5076111;28;20656;-68
2021/09/29 09:44:05;;;;;;;5.47;1.83;;;16.10;99.90;;;;;;5074968;28;20614;-69
2021/09/29 09:46:32;;;;;;;3.37;1.73;;;16.40;99.90;;;;;;5074721;28;20609;-68
2021/09/29 09:49:11;;;;;;;7.87;2.00;;;16.30;99.90;;;;;;5075824;28;20624;-69
2021/09/29 09:51:48;;;;;;;4.57;2.00;;;16.30;99.90;;;;;;5075717;28;20626;-68
2021/09/29 09:54:16;;;;;;;4.87;2.40;;;16.10;99.90;;;;;;5076014;28;20612;-69
2021/09/29 09:56:52;;;;;;;6.27;1.83;;;15.90;99.90;;;;;;5075478;28;20630;-69
2021/09/29 09:59:19;;;;;;;3.27;1.60;;;16.00;99.90;;;;;;5075082;28;20621;-69
2021/09/29 10:01:46;;;;;;;7.77;2.70;;;16.10;99.90;;;;;;5075864;28;20684;-68
2021/09/29 10:04:14;;;;;;;2.20;2.00;;;16.20;99.90;;;;;;5076023;28;21137;-69
2021/09/29 10:06:41;;;;;;;1.67;1.57;;;16.30;99.90;;;;;;5075763;28;20637;-68
2021/09/29 10:09:20;;;;;;;2.10;1.87;;;16.10;99.90;;;;;;5075954;28;20632;-67
2021/09/29 10:15:00;;;;;;;1.90;1.70;;;16.10;99.90;;;;;;5075861;28;21132;-67
2021/09/29 10:28:12;;;;;;;4.90;1.70;;;17.00;99.90;;;;;;5075196;28;20586;-68
2021/09/29 10:30:47;;;;;;;4.90;1.63;;;17.40;99.90;;;;;;5074563;28;20630;-68
2021/09/29 10:33:25;;;;;;;4.17;2.40;;;17.50;99.90;;;;;;5074946;28;21050;-67
2021/09/29 10:36:03;;;;;;;3.07;1.83;;;17.40;99.90;;;;;;5073904;28;21156;-67
2021/09/29 10:41:09;;;;;;;16.43;2.80;;;17.60;99.90;;;;;;5075149;28;20645;-67
2021/09/29 10:46:34;;;;;;;3.33;1.53;;;18.10;99.90;;;;;;5075345;28;20961;-67
2021/09/29 10:49:16;;;;;;;2.23;1.30;;;18.30;99.90;;;;;;5073422;28;20657;-66
2021/09/29 11:06:17;;;;;;;3.07;2.77;;;17.10;99.90;;;;;;5074974;28;20574;-66
2021/09/29 11:11:49;;;;;;;6.67;2.00;;;16.80;99.90;;;;;;5074747;28;20570;-67
2021/09/29 11:31:32;;;;;;;4.00;2.00;;;16.90;99.90;;;;;;5066036;28;20618;-67
2021/09/29 11:34:18;;;;;;;6.43;1.50;;;17.10;99.90;;;;;;5073756;28;20614;-67
2021/09/29 11:37:28;;;;;;;5.30;2.63;;;16.50;99.90;;;;;;5073954;28;20574;-67
2021/09/29 11:40:04;;;;;;;4.70;2.07;;;16.40;99.90;;;;;;5073649;28;20733;-67
2021/09/29 12:10:58;;;;;;;1.47;1.00;;;16.60;99.90;;;;;;5061387;28;20658;-66
2021/09/29 12:13:45;;;;;;;2.80;1.07;;;16.50;99.90;;;;;;5073369;28;20717;-67
2021/09/29 12:16:31;;;;;;;2.50;1.07;;;16.30;99.90;;;;;;5072805;28;20551;-67
2021/09/29 12:19:07;;;;;;;1.73;1.20;;;16.20;99.90;;;;;;5073525;28;20637;-67
2021/09/29 12:21:46;;;;;;;2.90;0.97;;;16.10;99.90;;;;;;5073158;28;20614;-67
2021/09/29 12:24:26;;;;;;;1.13;0.90;;;16.00;99.90;;;;;;5073634;28;20973;-67
2021/09/29 12:26:54;;;;;;;2.67;1.20;;;15.80;99.90;;;;;;5073239;28;20622;-67
2021/09/29 12:29:35;;;;;;;4.90;1.97;;;15.50;99.90;;;;;;5071896;28;20614;-68
2021/09/29 12:32:17;;;;;;;3.43;1.23;;;15.10;99.90;;;;;;5071871;28;20724;-68
2021/09/29 12:35:03;;;;;;;6.50;1.00;;;14.20;99.90;;;;;;5073430;28;20657;-67
2021/09/29 12:37:29;;;;;;;7.47;1.13;;;13.90;99.90;;;;;;5067903;28;20653;-67
2021/09/29 12:39:57;;;;;;;2.23;1.10;;;13.90;99.90;;;;;;5073131;28;21164;-68
2021/09/29 12:42:35;;;;;;;2.10;0.80;;;13.90;99.90;;;;;;5071457;28;20661;-68
2021/09/29 12:45:03;;;;;;;4.93;1.30;;;13.90;99.90;;;;;;5071842;28;20621;-67
2021/09/29 12:49:59;;;;;;;3.37;0.87;;;14.00;99.90;;;;;;5072598;28;20736;-67
2021/09/29 12:52:33;;;;;;;1.57;1.23;;;14.00;99.90;;;;;;5072965;28;20641;-65
2021/09/29 12:55:00;;;;;;;2.20;0.73;;;14.00;99.90;;;;;;5068344;28;20575;-68
2021/09/29 12:57:29;;;;;;;1.67;1.13;;;13.90;99.90;;;;;;5063717;28;20629;-67
2021/09/29 12:59:56;;;;;;;1.50;0.87;;;13.90;99.90;;;;;;5072436;28;20607;-65
2021/09/29 13:02:24;;;;;;;3.47;1.20;;;13.80;99.90;;;;;;5072753;28;20690;-66
2021/09/29 13:04:51;;;;;;;1.00;0.67;;;13.90;99.90;;;;;;5072643;28;20626;-66
2021/09/29 13:07:17;;;;;;;0.93;0.80;;;13.70;99.90;;;;;;5072685;28;20621;-67
2021/09/29 13:09:45;;;;;;;1.70;1.07;;;13.80;99.90;;;;;;5072351;28;20196;-66
2021/09/29 13:12:12;;;;;;;1.90;0.80;;;13.80;99.90;;;;;;5059013;28;20641;-68
2021/09/29 13:14:38;;;;;;;2.13;0.93;;;13.90;99.90;;;;;;5059581;28;20623;-68
2021/09/29 13:17:06;;;;;;;5.73;0.90;;;13.80;99.90;;;;;;5072107;28;21011;-68
2021/09/29 13:19:55;;;;;;;1.80;1.00;;;14.00;99.90;;;;;;5064691;28;20618;-67
2021/09/29 13:22:23;;;;;;;2.77;1.10;;;14.00;99.90;;;;;;5074063;28;20657;-68
2021/09/29 13:35:07;;;;;;;1.33;1.03;;;14.00;99.90;;;;;;5074311;28;20578;-68
2021/09/29 13:38:50;;;;;;;2.00;0.80;;;14.20;99.90;;;;;;5078154;28;20562;-67
2021/09/29 13:41:19;;;;;;;0.87;0.83;;;14.20;99.90;;;;;;5078756;28;20658;-68
2021/09/29 13:43:45;;;;;;;1.03;0.70;;;14.20;99.90;;;;;;5078529;28;20594;-68
2021/09/29 13:46:11;;;;;;;1.30;1.03;;;14.20;99.90;;;;;;5077660;28;20621;-68
2021/09/29 13:48:38;;;;;;;0.90;0.90;;;14.20;99.90;;;;;;5077798;28;20637;-68
2021/09/29 13:51:04;;;;;;;1.73;0.90;;;14.20;99.90;;;;;;5078236;28;20629;-68
2021/09/29 13:53:31;;;;;;;3.47;0.80;;;14.30;99.90;;;;;;5079368;28;20598;-68
2021/09/29 13:56:03;;;;;;;0.90;0.80;;;14.30;99.90;;;;;;5080373;28;21136;-67
2021/09/29 14:14:59;;;;;;;2.57;2.37;;;17.40;99.90;;;;;;5077323;28;20562;-67
2021/09/29 14:31:09;;;;;;;1.67;0.80;;;17.30;99.90;;;;;;5078472;28;20606;-67
2021/09/29 14:33:39;;;;;;;2.93;0.90;;;17.10;99.90;;;;;;5078766;28;20616;-67
2021/09/29 14:36:05;;;;;;;1.80;0.70;;;18.00;99.90;;;;;;5079207;28;20633;-67
2021/09/29 14:38:32;;;;;;;1.10;0.80;;;18.30;99.90;;;;;;5077096;28;21019;-67
2021/09/29 14:40:58;;;;;;;11.20;0.90;;;18.60;99.90;;;;;;5076386;28;20633;-67
2021/09/29 14:43:24;;;;;;;2.30;0.80;;;19.50;99.90;;;;;;5076861;28;20610;-67
2021/09/29 14:45:51;;;;;;;2.40;0.70;;;19.10;99.90;;;;;;5077046;28;20610;-67
2021/09/29 14:48:17;;;;;;;2.50;0.73;;;18.30;99.90;;;;;;5078323;28;20636;-67
2021/09/29 14:50:49;;;;;;;2.40;0.70;;;17.40;99.90;;;;;;5077073;28;20973;-67
2021/09/29 14:53:15;;;;;;;0.70;0.70;;;16.90;99.90;;;;;;5076058;28;20636;-67
2021/09/29 14:55:42;;;;;;;1.80;1.00;;;16.60;99.90;;;;;;5077082;28;21147;-69
2021/09/29 14:58:08;;;;;;;0.93;0.80;;;16.10;99.90;;;;;;5075444;28;20976;-67
2021/09/29 15:00:34;;;;;;;1.73;0.60;;;16.10;99.90;;;;;;5075510;28;20618;-67
2021/09/29 15:03:01;;;;;;;0.90;0.70;;;16.50;99.90;;;;;;5075514;28;21170;-67
2021/09/29 15:05:28;;;;;;;2.13;0.93;;;16.50;99.90;;;;;;5075611;28;21018;-68
2021/09/29 15:07:54;;;;;;;0.80;0.80;;;17.40;99.90;;;;;;5075057;28;20720;-67
2021/09/29 15:10:23;;;;;;;3.57;0.70;;;17.90;99.90;;;;;;5074733;28;20600;-68
2021/09/29 15:12:51;;;;;;;1.00;0.90;;;18.50;99.90;;;;;;5074707;28;20656;-68
2021/09/29 15:15:26;;;;;;;1.77;1.00;;;18.30;99.90;;;;;;5074892;28;20594;-67
2021/09/29 15:17:56;;;;;;;2.10;1.00;;;17.50;99.90;;;;;;5074582;28;20646;-67
2021/09/29 15:21:09;;;;;;;1.23;1.13;;;17.10;99.90;;;;;;5074429;28;20629;-68
2021/09/29 15:29:10;;;;;;;1.00;0.80;;;16.80;99.90;;;;;;5074757;28;20581;-67
2021/09/29 15:48:14;;;;;;;3.53;0.93;;;16.80;99.90;;;;;;5074275;28;21169;-67
2021/09/29 15:53:19;;;;;;;2.80;1.00;;;16.60;99.90;;;;;;5074443;28;20618;-67
2021/09/29 16:03:30;;;;;;;0.77;0.70;;;16.60;99.90;;;;;;5073854;28;20610;-68
2021/09/29 16:37:46;;;;;;;0.87;0.80;;;15.40;99.90;;;;;;5073596;28;20696;-67
2021/09/29 16:40:14;;;;;;;1.00;0.90;;;15.40;99.90;;;;;;5073139;28;20680;-67
2021/09/29 16:42:40;;;;;;;1.47;1.10;;;15.30;99.90;;;;;;5073564;28;20995;-68